createdAt,value
2022-12-20T00:00:09.166Z,8.18
2022-12-20T00:02:35.716Z,10.25
2022-12-20T00:05:02.369Z,8.93
2022-12-20T00:07:28.856Z,9.15
2022-12-20T00:09:55.260Z,7.82
2022-12-20T00:12:21.714Z,8.20
2022-12-20T00:14:48.028Z,8.68
2022-12-20T00:17:14.586Z,9.43
2022-12-20T00:19:40.988Z,8.75
2022-12-20T00:22:07.400Z,9.75
2022-12-20T00:24:33.795Z,7.38
2022-12-20T00:27:00.379Z,8.10
2022-12-20T00:29:26.834Z,7.65
2022-12-20T00:31:53.444Z,7.93
2022-12-20T00:34:19.954Z,8.02
2022-12-20T00:36:46.429Z,6.97
2022-12-20T00:39:13.230Z,7.35
2022-12-20T00:41:39.654Z,8.95
2022-12-20T00:44:06.034Z,8.23
2022-12-20T00:46:32.831Z,8.80
2022-12-20T00:48:59.357Z,8.10
2022-12-20T00:51:29.284Z,8.40
2022-12-20T00:53:56.199Z,7.07
2022-12-20T00:56:23.224Z,7.47
2022-12-20T00:58:52.271Z,7.85
2022-12-20T01:01:22.101Z,8.85
2022-12-20T01:03:50.064Z,8.85
2022-12-20T01:06:17.516Z,6.68
2022-12-20T01:08:44.093Z,8.13
2022-12-20T01:11:13.153Z,8.93
2022-12-20T01:13:42.953Z,7.82
2022-12-20T01:16:13.706Z,8.15
2022-12-20T01:18:40.274Z,7.35
2022-12-20T01:21:09.397Z,6.78
2022-12-20T01:23:36.248Z,9.52
2022-12-20T01:26:04.352Z,7.38
2022-12-20T01:28:31.995Z,7.90
2022-12-20T01:30:58.499Z,9.30
2022-12-20T01:33:24.931Z,8.70
2022-12-20T01:35:59.079Z,8.13
2022-12-20T01:38:26.007Z,8.73
2022-12-20T01:40:54.083Z,8.57
2022-12-20T01:43:21.575Z,7.45
2022-12-20T01:45:48.237Z,7.65
2022-12-20T01:48:18.304Z,7.85
2022-12-20T01:50:46.831Z,7.35
2022-12-20T01:53:13.756Z,7.55
2022-12-20T01:55:40.552Z,9.27
2022-12-20T01:58:10.976Z,8.25
2022-12-20T02:00:37.563Z,8.35
2022-12-20T02:03:08.270Z,7.57
2022-12-20T02:05:38.211Z,8.25
2022-12-20T02:08:06.413Z,8.48
2022-12-20T02:10:51.199Z,8.88
2022-12-20T02:13:44.539Z,7.70
2022-12-20T02:16:19.504Z,7.75
2022-12-20T02:19:10.769Z,7.78
2022-12-20T02:21:45.914Z,7.03
2022-12-20T02:24:21.204Z,7.10
2022-12-20T02:27:04.303Z,7.47
2022-12-20T02:29:37.164Z,8.25
2022-12-20T02:32:12.695Z,7.95
2022-12-20T02:34:40.258Z,7.65
2022-12-20T02:37:06.662Z,7.18
2022-12-20T02:39:34.163Z,7.88
2022-12-20T02:42:13.984Z,6.75
2022-12-20T02:44:52.575Z,8.82
2022-12-20T02:47:26.968Z,6.72
2022-12-20T02:49:55.469Z,8.65
2022-12-20T02:52:25.572Z,7.97
2022-12-20T02:54:54.138Z,7.65
2022-12-20T02:57:28.737Z,7.90
2022-12-20T03:00:10.118Z,7.87
2022-12-20T03:02:38.112Z,7.63
2022-12-20T03:05:06.155Z,8.25
2022-12-20T03:07:34.168Z,7.40
2022-12-20T03:10:00.602Z,8.27
2022-12-20T03:12:27.105Z,7.60
2022-12-20T03:14:53.464Z,6.88
2022-12-20T03:17:19.951Z,7.38
2022-12-20T03:19:46.537Z,8.00
2022-12-20T03:22:12.866Z,6.82
2022-12-20T03:24:39.782Z,7.10
2022-12-20T03:27:06.174Z,7.68
2022-12-20T03:29:32.553Z,7.30
2022-12-20T03:31:58.995Z,7.32
2022-12-20T03:34:25.346Z,7.25
2022-12-20T03:36:51.929Z,7.32
2022-12-20T03:39:18.422Z,7.00
2022-12-20T03:41:44.834Z,7.43
2022-12-20T03:44:11.246Z,7.47
2022-12-20T03:46:38.147Z,7.18
2022-12-20T03:49:04.711Z,7.90
2022-12-20T03:51:31.454Z,7.25
2022-12-20T03:57:20.169Z,6.13
2022-12-20T03:59:46.501Z,7.45
2022-12-20T04:02:13.045Z,6.85
2022-12-20T04:04:39.440Z,6.82
2022-12-20T04:07:05.851Z,6.55
2022-12-20T04:09:32.185Z,7.50
2022-12-20T04:11:58.596Z,7.43
2022-12-20T04:14:24.899Z,5.90
2022-12-20T04:16:51.404Z,7.75
2022-12-20T04:19:17.848Z,6.22
2022-12-20T04:21:44.384Z,7.50
2022-12-20T04:24:10.795Z,7.05
2022-12-20T04:26:37.496Z,7.63
2022-12-20T04:29:04.185Z,7.75
2022-12-20T04:31:30.612Z,7.00
2022-12-20T04:33:57.090Z,7.55
2022-12-20T04:36:23.514Z,6.53
2022-12-20T04:38:49.955Z,7.18
2022-12-20T04:41:16.574Z,6.15
2022-12-20T04:43:42.915Z,7.70
2022-12-20T04:46:09.370Z,7.43
2022-12-20T04:48:56.479Z,6.97
2022-12-20T04:51:22.239Z,6.90
2022-12-20T04:53:48.741Z,7.13
2022-12-20T04:56:24.810Z,6.38
2022-12-20T04:58:53.392Z,7.40
2022-12-20T05:01:20.354Z,6.85
2022-12-20T05:03:47.777Z,6.40
2022-12-20T05:06:14.553Z,7.88
2022-12-20T05:08:41.282Z,6.75
2022-12-20T05:11:08.134Z,6.20
2022-12-20T05:13:34.649Z,7.40
2022-12-20T05:16:01.739Z,6.13
2022-12-20T05:18:28.609Z,6.78
2022-12-20T05:20:59.760Z,7.45
2022-12-20T05:23:26.233Z,6.80
2022-12-20T05:25:53.796Z,7.72
2022-12-20T05:28:20.223Z,6.18
2022-12-20T05:30:46.567Z,5.40
2022-12-20T05:33:13.142Z,6.78
2022-12-20T05:35:39.523Z,6.03
2022-12-20T05:38:05.878Z,6.93
2022-12-20T05:40:32.300Z,6.72
2022-12-20T05:42:58.732Z,6.72
2022-12-20T05:45:25.137Z,6.85
2022-12-20T05:47:51.501Z,7.38
2022-12-20T05:50:19.286Z,7.28
2022-12-20T05:52:45.842Z,6.75
2022-12-20T05:55:12.363Z,7.38
2022-12-20T05:57:38.776Z,6.63
2022-12-20T06:00:06.067Z,6.75
2022-12-20T06:02:32.803Z,6.57
2022-12-20T06:04:59.710Z,7.45
2022-12-20T06:07:26.739Z,6.68
2022-12-20T06:09:53.203Z,7.43
2022-12-20T06:12:19.651Z,7.90
2022-12-20T06:14:46.193Z,7.30
2022-12-20T06:17:12.770Z,7.85
2022-12-20T06:19:39.525Z,7.03
2022-12-20T06:22:06.194Z,6.90
2022-12-20T06:24:32.551Z,5.93
2022-12-20T06:26:58.957Z,7.18
2022-12-20T06:29:25.407Z,8.00
2022-12-20T06:31:52.208Z,5.75
2022-12-20T06:34:19.213Z,6.90
2022-12-20T06:36:45.739Z,6.57
2022-12-20T06:39:12.862Z,6.35
2022-12-20T06:41:40.561Z,7.97
2022-12-20T06:44:07.800Z,7.18
2022-12-20T06:46:34.410Z,7.53
2022-12-20T06:49:00.861Z,6.45
2022-12-20T06:51:27.222Z,7.30
2022-12-20T06:53:53.640Z,7.40
2022-12-20T06:56:20.044Z,6.90
2022-12-20T06:58:46.503Z,6.55
2022-12-20T07:01:13.283Z,6.32
2022-12-20T07:03:40.019Z,7.97
2022-12-20T07:06:06.683Z,7.35
2022-12-20T07:08:33.114Z,7.35
2022-12-20T07:11:08.519Z,7.05
2022-12-20T07:13:35.083Z,6.38
2022-12-20T07:16:03.946Z,6.63
2022-12-20T07:18:30.426Z,6.57
2022-12-20T07:21:01.687Z,7.38
2022-12-20T07:23:28.459Z,6.90
2022-12-20T07:25:59.315Z,6.40
2022-12-20T07:28:26.648Z,6.72
2022-12-20T07:30:54.447Z,7.25
2022-12-20T07:33:21.141Z,7.20
2022-12-20T07:35:53.990Z,5.90
2022-12-20T07:38:20.940Z,6.32
2022-12-20T07:40:47.474Z,6.65
2022-12-20T07:43:13.824Z,6.72
2022-12-20T07:45:40.343Z,6.72
2022-12-20T07:48:11.398Z,6.50
2022-12-20T07:50:41.248Z,5.90
2022-12-20T07:53:09.398Z,6.95
2022-12-20T07:55:38.018Z,7.65
2022-12-20T07:58:08.408Z,6.82
2022-12-20T08:00:35.899Z,5.13
2022-12-20T08:03:16.613Z,6.55
2022-12-20T08:05:48.671Z,6.10
2022-12-20T08:08:15.972Z,6.68
2022-12-20T08:10:42.535Z,6.45
2022-12-20T08:13:09.487Z,7.03
2022-12-20T08:15:36.800Z,5.72
2022-12-20T08:18:03.637Z,5.97
2022-12-20T08:20:29.991Z,5.85
2022-12-20T08:22:56.500Z,6.63
2022-12-20T08:25:23.641Z,7.35
2022-12-20T08:27:50.173Z,6.43
2022-12-20T08:30:17.135Z,5.80
2022-12-20T08:32:43.510Z,6.28
2022-12-20T08:35:10.493Z,5.65
2022-12-20T08:37:37.047Z,5.40
2022-12-20T08:40:04.309Z,5.70
2022-12-20T08:42:30.896Z,5.57
2022-12-20T08:44:57.311Z,5.82
2022-12-20T08:47:23.689Z,6.68
2022-12-20T08:49:50.317Z,5.22
2022-12-20T08:52:16.651Z,5.03
2022-12-20T08:54:42.978Z,4.80
2022-12-20T08:57:09.383Z,5.63
2022-12-20T08:59:35.731Z,6.25
2022-12-20T09:02:02.446Z,5.85
2022-12-20T09:04:28.977Z,5.50
2022-12-20T09:06:55.297Z,5.47
2022-12-20T09:09:21.691Z,6.05
2022-12-20T09:11:48.113Z,6.38
2022-12-20T09:14:14.476Z,5.18
2022-12-20T09:16:41.026Z,5.97
2022-12-20T09:19:07.460Z,6.93
2022-12-20T09:21:34.932Z,5.28
2022-12-20T09:24:01.588Z,6.80
2022-12-20T09:26:27.898Z,5.15
2022-12-20T09:28:54.627Z,6.70
2022-12-20T09:31:24.075Z,5.85
2022-12-20T09:33:54.211Z,6.78
2022-12-20T09:36:23.776Z,5.80
2022-12-20T09:38:50.373Z,6.38
2022-12-20T09:41:25.853Z,5.68
2022-12-20T09:46:18.896Z,5.15
2022-12-20T09:48:47.502Z,6.07
2022-12-20T09:51:27.865Z,5.28
2022-12-20T09:54:16.058Z,5.28
2022-12-20T09:56:54.565Z,4.45
2022-12-20T09:59:21.002Z,6.18
2022-12-20T10:01:49.840Z,6.07
2022-12-20T10:04:23.395Z,6.03
2022-12-20T10:07:14.438Z,6.75
2022-12-20T10:10:21.543Z,5.90
2022-12-20T10:13:14.028Z,6.07
2022-12-20T10:15:52.964Z,5.10
2022-12-20T10:18:22.246Z,5.65
2022-12-20T10:21:03.892Z,5.80
2022-12-20T10:24:00.297Z,6.05
2022-12-20T10:26:26.812Z,5.40
2022-12-20T10:28:54.638Z,5.60
2022-12-20T10:31:21.585Z,5.60
2022-12-20T10:33:48.078Z,5.35
2022-12-20T10:36:27.242Z,5.22
2022-12-20T10:38:56.638Z,4.95
2022-12-20T10:41:32.323Z,5.10
2022-12-20T10:44:03.107Z,5.65
2022-12-20T10:46:43.128Z,5.15
2022-12-20T10:49:30.933Z,4.90
2022-12-20T10:52:01.033Z,5.00
2022-12-20T10:54:39.399Z,5.15
2022-12-20T10:57:26.274Z,4.90
2022-12-20T11:00:00.984Z,4.88
2022-12-20T11:02:39.951Z,4.80
2022-12-20T11:05:10.666Z,4.57
2022-12-20T11:08:24.541Z,5.75
2022-12-20T11:10:37.501Z,5.65
2022-12-20T11:13:04.487Z,4.88
2022-12-20T11:15:34.801Z,4.90
2022-12-20T11:18:38.139Z,4.97
2022-12-20T11:21:17.689Z,4.25
2022-12-20T11:23:58.436Z,4.47
2022-12-20T11:26:38.636Z,5.53
2022-12-20T11:29:48.817Z,5.85
2022-12-20T11:32:44.665Z,5.13
2022-12-20T11:35:28.062Z,5.03
2022-12-20T11:38:10.184Z,5.50
2022-12-20T11:40:53.621Z,4.85
2022-12-20T11:44:23.809Z,4.68
2022-12-20T11:47:08.958Z,5.55
2022-12-20T11:49:35.342Z,5.47
2022-12-20T11:52:02.417Z,5.63
2022-12-20T11:54:34.827Z,7.15
2022-12-20T11:57:14.033Z,6.32
2022-12-20T11:59:47.709Z,5.60
2022-12-20T12:02:21.973Z,6.05
2022-12-20T12:04:56.848Z,6.28
2022-12-20T12:07:28.717Z,5.10
2022-12-20T12:10:15.863Z,5.75
2022-12-20T12:12:48.621Z,6.10
2022-12-20T12:15:17.034Z,5.82
2022-12-20T12:18:07.511Z,6.18
2022-12-20T12:20:48.795Z,4.78
2022-12-20T12:23:27.740Z,5.63
2022-12-20T12:25:54.150Z,4.65
2022-12-20T12:28:22.743Z,5.68
2022-12-20T12:30:56.802Z,4.35
2022-12-20T12:33:38.129Z,5.35
2022-12-20T12:36:26.437Z,6.38
2022-12-20T12:39:21.848Z,5.65
2022-12-20T12:41:54.205Z,5.73
2022-12-20T12:44:47.224Z,5.35
2022-12-20T12:47:52.875Z,4.40
2022-12-20T12:50:33.423Z,5.38
2022-12-20T12:53:17.267Z,6.68
2022-12-20T12:55:49.541Z,5.70
2022-12-20T12:58:36.225Z,5.35
2022-12-20T13:01:08.284Z,5.45
2022-12-20T13:03:36.745Z,5.43
2022-12-20T13:06:24.955Z,4.70
2022-12-20T13:09:00.689Z,5.43
2022-12-20T13:11:32.978Z,5.13
2022-12-20T13:14:17.656Z,5.57
2022-12-20T13:19:35.189Z,4.82
2022-12-20T13:22:04.298Z,5.82
2022-12-20T13:24:46.067Z,4.32
2022-12-20T13:27:21.253Z,4.70
2022-12-20T13:30:04.560Z,5.38
2022-12-20T13:32:49.256Z,5.45
2022-12-20T13:35:24.655Z,5.47
2022-12-20T13:40:42.470Z,4.30
2022-12-20T13:43:25.751Z,5.25
2022-12-20T13:46:04.800Z,4.82
2022-12-20T13:48:46.432Z,4.90
2022-12-20T13:51:27.654Z,5.68
2022-12-20T13:53:56.791Z,5.35
2022-12-20T13:56:46.857Z,5.13
2022-12-20T13:59:18.648Z,5.90
2022-12-20T14:01:51.089Z,6.43
2022-12-20T14:04:20.813Z,5.85
2022-12-20T14:06:57.964Z,7.05
2022-12-20T14:09:38.270Z,5.97
2022-12-20T14:12:23.298Z,5.82
2022-12-20T14:14:53.178Z,5.18
2022-12-20T14:17:26.478Z,5.28
2022-12-20T14:20:29.112Z,5.05
2022-12-20T14:23:00.776Z,5.25
2022-12-20T14:25:43.060Z,7.65
2022-12-20T14:28:28.928Z,6.25
2022-12-20T14:33:40.956Z,5.95
2022-12-20T14:36:17.624Z,6.15
2022-12-20T14:38:49.641Z,5.88
2022-12-20T14:41:32.526Z,4.57
2022-12-20T14:44:03.617Z,5.68
2022-12-20T14:46:31.299Z,5.43
2022-12-20T14:49:18.507Z,5.57
2022-12-20T14:51:46.607Z,5.93
2022-12-20T14:57:27.801Z,5.07
2022-12-20T15:00:20.341Z,5.05
2022-12-20T15:02:55.729Z,4.00
2022-12-20T15:05:34.375Z,4.95
2022-12-20T15:08:34.083Z,5.43
2022-12-20T15:11:10.416Z,5.80
2022-12-20T15:13:37.960Z,4.32
2022-12-20T15:16:16.124Z,4.32
2022-12-20T15:18:42.749Z,5.07
2022-12-20T15:21:18.305Z,4.72
2022-12-20T15:23:48.057Z,5.78
2022-12-20T15:26:16.381Z,5.40
2022-12-20T15:28:42.688Z,5.15
2022-12-20T15:31:14.601Z,5.22
2022-12-20T15:33:42.912Z,4.93
2022-12-20T15:36:21.847Z,4.80
2022-12-20T15:41:37.470Z,3.95
2022-12-20T15:44:11.900Z,5.38
2022-12-20T15:46:38.701Z,5.68
2022-12-20T15:49:05.294Z,4.13
2022-12-20T15:51:35.103Z,5.50
2022-12-20T15:54:06.901Z,5.47
2022-12-20T15:56:33.320Z,6.50
2022-12-20T15:59:00.304Z,5.25
2022-12-20T16:01:40.738Z,5.45
2022-12-20T16:04:13.221Z,4.80
2022-12-20T16:06:39.631Z,5.10
2022-12-20T16:09:06.380Z,4.90
2022-12-20T16:11:32.730Z,5.07
2022-12-20T16:14:00.277Z,4.80
2022-12-20T16:16:32.551Z,4.70
2022-12-20T16:18:59.126Z,4.40
2022-12-20T16:21:41.549Z,4.97
2022-12-20T16:24:13.522Z,5.47
2022-12-20T16:26:39.971Z,4.93
2022-12-20T16:29:06.832Z,5.20
2022-12-20T16:31:36.552Z,4.53
2022-12-20T16:34:12.116Z,5.28
2022-12-20T16:36:38.523Z,5.53
2022-12-20T16:39:04.873Z,4.97
2022-12-20T16:41:33.454Z,4.72
2022-12-20T16:44:02.289Z,5.55
2022-12-20T16:46:30.840Z,5.15
2022-12-20T16:48:59.900Z,4.63
2022-12-20T16:51:30.076Z,5.07
2022-12-20T16:54:18.679Z,4.68
2022-12-20T16:56:45.688Z,4.93
2022-12-20T16:59:22.019Z,5.63
2022-12-20T17:01:52.778Z,5.13
2022-12-20T17:04:20.235Z,5.32
2022-12-20T17:06:46.972Z,4.38
2022-12-20T17:11:58.572Z,4.63
2022-12-20T17:14:24.985Z,5.90
2022-12-20T17:16:51.380Z,5.63
2022-12-20T17:19:17.761Z,5.85
2022-12-20T17:24:30.543Z,7.07
2022-12-20T17:26:57.002Z,6.53
2022-12-20T17:29:23.315Z,7.00
2022-12-20T17:31:49.856Z,8.30
2022-12-20T17:34:22.152Z,7.82
2022-12-20T17:36:51.207Z,9.27
2022-12-20T17:39:17.628Z,6.18
2022-12-20T17:41:44.930Z,5.30
2022-12-20T17:44:23.033Z,5.32
2022-12-20T17:46:50.440Z,5.50
2022-12-20T17:49:16.724Z,6.00
2022-12-20T17:51:43.785Z,5.70
2022-12-20T17:54:21.683Z,6.30
2022-12-20T17:56:48.817Z,4.88
2022-12-20T17:59:15.696Z,6.28
2022-12-20T18:01:43.399Z,5.63
2022-12-20T18:04:15.914Z,6.43
2022-12-20T18:06:44.490Z,6.22
2022-12-20T18:09:16.840Z,5.72
2022-12-20T18:11:43.216Z,5.00
2022-12-20T18:14:10.280Z,5.65
2022-12-20T18:16:36.992Z,5.32
2022-12-20T18:19:03.326Z,5.35
2022-12-20T18:21:29.677Z,6.28
2022-12-20T18:23:56.393Z,5.97
2022-12-20T18:26:25.766Z,5.47
2022-12-20T18:28:57.551Z,5.28
2022-12-20T18:31:26.099Z,4.88
2022-12-20T18:33:58.089Z,5.05
2022-12-20T18:36:27.584Z,4.75
2022-12-20T18:38:54.899Z,5.75
2022-12-20T18:41:23.845Z,5.82
2022-12-20T18:43:51.639Z,5.30
2022-12-20T18:46:20.460Z,5.88
2022-12-20T18:48:47.282Z,7.65
2022-12-20T18:51:16.486Z,7.25
2022-12-20T18:53:44.675Z,6.18
2022-12-20T18:56:14.261Z,6.10
2022-12-20T18:58:42.016Z,6.80
2022-12-20T19:01:14.282Z,5.70
2022-12-20T19:03:40.819Z,6.25
2022-12-20T19:06:07.732Z,6.20
2022-12-20T19:08:34.297Z,5.55
2022-12-20T19:11:05.969Z,5.55
2022-12-20T19:13:32.359Z,5.95
2022-12-20T19:16:04.409Z,5.70
2022-12-20T19:18:30.939Z,5.72
2022-12-20T19:21:13.151Z,5.85
2022-12-20T19:23:41.818Z,4.75
2022-12-20T19:26:11.560Z,5.38
2022-12-20T19:28:38.856Z,5.10
2022-12-20T19:31:11.945Z,5.68
2022-12-20T19:36:16.664Z,5.20
2022-12-20T19:38:44.683Z,6.38
2022-12-20T19:41:11.439Z,5.78
2022-12-20T19:43:37.969Z,4.90
2022-12-20T19:46:04.483Z,5.93
2022-12-20T19:48:32.486Z,5.97
2022-12-20T19:51:07.944Z,5.35
2022-12-20T19:56:00.667Z,5.22
2022-12-20T19:58:27.059Z,4.70
2022-12-20T20:00:53.450Z,5.18
2022-12-20T20:03:19.892Z,5.85
2022-12-20T20:05:46.408Z,5.25
2022-12-20T20:08:12.753Z,5.43
2022-12-20T20:10:39.384Z,5.35
2022-12-20T20:13:05.677Z,5.25
2022-12-20T20:15:32.026Z,4.57
2022-12-20T20:17:58.530Z,5.70
2022-12-20T20:20:25.003Z,5.22
2022-12-20T20:22:51.315Z,6.40
2022-12-20T20:25:17.849Z,5.82
2022-12-20T20:27:45.182Z,5.88
2022-12-20T20:30:12.543Z,6.32
2022-12-20T20:32:38.928Z,5.28
2022-12-20T20:35:05.653Z,5.85
2022-12-20T20:37:32.010Z,4.72
2022-12-20T20:39:58.472Z,4.97
2022-12-20T20:42:24.778Z,6.03
2022-12-20T20:44:51.241Z,5.45
2022-12-20T20:47:17.556Z,5.97
2022-12-20T20:49:43.847Z,6.47
2022-12-20T20:52:10.268Z,5.68
2022-12-20T20:54:36.584Z,5.45
2022-12-20T20:57:03.029Z,6.43
2022-12-20T20:59:29.535Z,5.60
2022-12-20T21:01:56.002Z,5.38
2022-12-20T21:04:22.385Z,5.80
2022-12-20T21:06:48.773Z,6.20
2022-12-20T21:09:15.242Z,4.78
2022-12-20T21:11:41.820Z,5.82
2022-12-20T21:14:08.544Z,6.35
2022-12-20T21:16:35.349Z,4.97
2022-12-20T21:19:01.749Z,6.05
2022-12-20T21:21:28.671Z,5.30
2022-12-20T21:23:55.609Z,5.43
2022-12-20T21:26:23.383Z,5.32
2022-12-20T21:28:49.807Z,5.18
2022-12-20T21:31:18.351Z,6.47
2022-12-20T21:33:45.242Z,6.75
2022-12-20T21:36:14.419Z,6.00
2022-12-20T21:38:41.369Z,11.88
2022-12-20T21:41:11.056Z,11.27
2022-12-20T21:43:37.672Z,9.13
2022-12-20T21:46:04.717Z,7.28
2022-12-20T21:48:31.509Z,9.02
2022-12-20T21:51:02.713Z,8.30
2022-12-20T21:53:29.997Z,8.38
2022-12-20T21:55:57.617Z,6.93
2022-12-20T21:58:24.627Z,6.43
2022-12-20T22:00:55.749Z,6.82
2022-12-20T22:03:23.995Z,6.28
2022-12-20T22:05:52.761Z,6.75
2022-12-20T22:08:20.333Z,5.05
2022-12-20T22:10:47.093Z,6.22
2022-12-20T22:13:13.424Z,6.30
2022-12-20T22:15:40.322Z,6.18
2022-12-20T22:18:07.890Z,6.20
2022-12-20T22:20:35.095Z,6.78
2022-12-20T22:23:02.162Z,6.22
2022-12-20T22:25:28.733Z,7.15
2022-12-20T22:27:55.886Z,7.60
2022-12-20T22:30:22.316Z,6.13
2022-12-20T22:32:48.610Z,6.45
2022-12-20T22:35:20.647Z,6.95
2022-12-20T22:37:49.056Z,6.97
2022-12-20T22:40:15.548Z,6.22
2022-12-20T22:42:41.854Z,6.80
2022-12-20T22:45:08.862Z,6.53
2022-12-20T22:47:35.329Z,8.15
2022-12-20T22:50:01.651Z,6.50
2022-12-20T22:52:28.031Z,7.07
2022-12-20T22:54:54.326Z,6.55
2022-12-20T22:57:20.663Z,6.82
2022-12-20T22:59:47.187Z,8.18
2022-12-20T23:02:13.714Z,6.25
2022-12-20T23:04:40.247Z,7.40
2022-12-20T23:07:06.549Z,6.78
2022-12-20T23:09:33.488Z,7.00
2022-12-20T23:12:00.035Z,6.55
2022-12-20T23:14:26.379Z,6.85
2022-12-20T23:16:52.848Z,7.07
2022-12-20T23:19:19.181Z,6.82
2022-12-20T23:21:45.630Z,6.55
2022-12-20T23:24:12.695Z,7.38
2022-12-20T23:26:40.416Z,7.50
2022-12-20T23:29:07.771Z,7.43
2022-12-20T23:31:34.207Z,6.88
2022-12-20T23:34:01.174Z,7.30
2022-12-20T23:36:28.377Z,7.07
2022-12-20T23:38:54.929Z,8.43
2022-12-20T23:41:21.321Z,7.10
2022-12-20T23:43:47.910Z,7.50
2022-12-20T23:46:16.249Z,7.38
2022-12-20T23:48:43.354Z,7.25
2022-12-20T23:51:10.257Z,8.15
2022-12-20T23:53:37.257Z,7.80
2022-12-20T23:56:15.998Z,7.75
2022-12-20T23:58:43.500Z,7.75
